createdAt,value
2024-02-16T00:00:14.965Z,0.60
2024-02-16T00:02:43.490Z,0.60
2024-02-16T00:05:12.683Z,0.60
2024-02-16T00:07:40.108Z,0.50
2024-02-16T00:10:08.139Z,0.60
2024-02-16T00:12:35.748Z,0.60
2024-02-16T00:15:03.777Z,0.50
2024-02-16T00:17:30.709Z,0.50
2024-02-16T00:19:58.574Z,0.60
2024-02-16T00:22:25.477Z,0.60
2024-02-16T00:24:52.814Z,0.60
2024-02-16T00:27:19.819Z,0.60
2024-02-16T00:29:49.628Z,0.50
2024-02-16T00:32:16.549Z,0.40
2024-02-16T00:34:44.315Z,0.40
2024-02-16T00:37:12.896Z,0.30
2024-02-16T00:39:43.099Z,0.30
2024-02-16T00:42:10.892Z,0.30
2024-02-16T00:44:38.135Z,0.30
2024-02-16T00:47:07.368Z,0.30
2024-02-16T00:49:34.713Z,0.30
2024-02-16T00:52:03.075Z,0.40
2024-02-16T00:54:29.974Z,0.30
2024-02-16T00:57:02.294Z,0.40
2024-02-16T00:59:29.972Z,0.30
2024-02-16T01:01:56.830Z,0.30
2024-02-16T01:04:24.280Z,0.40
2024-02-16T01:06:51.125Z,0.40
2024-02-16T01:09:18.005Z,0.30
2024-02-16T01:11:44.831Z,0.40
2024-02-16T01:14:11.638Z,0.40
2024-02-16T01:16:38.427Z,0.30
2024-02-16T01:19:07.587Z,0.30
2024-02-16T01:21:34.794Z,0.20
2024-02-16T01:24:02.168Z,0.30
2024-02-16T01:26:31.933Z,0.20
2024-02-16T01:28:59.623Z,0.20
2024-02-16T01:31:27.104Z,0.20
2024-02-16T01:33:54.102Z,0.20
2024-02-16T01:36:21.155Z,0.30
2024-02-16T01:38:48.104Z,0.30
2024-02-16T01:41:16.282Z,0.30
2024-02-16T01:43:43.138Z,0.40
2024-02-16T01:46:10.111Z,0.40
2024-02-16T01:48:38.166Z,0.40
2024-02-16T01:51:06.037Z,0.40
2024-02-16T01:53:33.034Z,0.50
2024-02-16T01:56:00.217Z,0.50
2024-02-16T01:58:28.101Z,0.60
2024-02-16T02:00:55.673Z,0.60
2024-02-16T02:03:24.004Z,0.60
2024-02-16T02:05:52.158Z,0.60
2024-02-16T02:08:19.060Z,0.60
2024-02-16T02:10:46.091Z,0.60
2024-02-16T02:13:13.060Z,0.60
2024-02-16T02:15:39.960Z,0.60
2024-02-16T02:18:07.085Z,0.60
2024-02-16T02:20:34.947Z,0.70
2024-02-16T02:23:01.834Z,0.70
2024-02-16T02:25:29.925Z,0.80
2024-02-16T02:27:57.300Z,0.70
2024-02-16T02:30:24.376Z,0.80
2024-02-16T02:32:52.454Z,0.90
2024-02-16T02:35:19.514Z,0.80
2024-02-16T02:37:46.415Z,0.90
2024-02-16T02:40:13.436Z,0.90
2024-02-16T02:42:40.220Z,0.90
2024-02-16T02:45:07.692Z,0.90
2024-02-16T02:47:34.570Z,1.00
2024-02-16T02:50:01.832Z,0.90
2024-02-16T02:52:28.928Z,0.90
2024-02-16T02:54:55.728Z,1.00
2024-02-16T02:57:22.908Z,0.90
2024-02-16T02:59:49.971Z,0.90
2024-02-16T03:02:17.411Z,0.90
2024-02-16T03:10:02.407Z,1.00
2024-02-16T03:12:29.251Z,1.00
2024-02-16T03:14:56.866Z,1.00
2024-02-16T03:17:24.131Z,1.10
2024-02-16T03:19:51.074Z,1.10
2024-02-16T03:22:18.603Z,1.10
2024-02-16T03:24:46.165Z,1.20
2024-02-16T03:27:13.223Z,1.20
2024-02-16T03:29:40.049Z,1.30
2024-02-16T03:32:06.983Z,1.30
2024-02-16T03:34:34.057Z,1.30
2024-02-16T03:37:01.045Z,1.40
2024-02-16T03:39:28.167Z,1.40
2024-02-16T03:41:55.106Z,1.40
2024-02-16T03:44:22.613Z,1.50
2024-02-16T03:46:49.777Z,1.50
2024-02-16T03:49:17.102Z,1.50
2024-02-16T03:51:44.154Z,1.50
2024-02-16T03:54:11.032Z,1.60
2024-02-16T03:56:37.941Z,1.60
2024-02-16T03:59:08.721Z,1.60
2024-02-16T04:01:36.462Z,1.70
2024-02-16T04:04:04.408Z,1.60
2024-02-16T04:06:31.425Z,1.60
2024-02-16T04:08:58.370Z,1.70
2024-02-16T04:11:25.267Z,1.70
2024-02-16T04:13:52.340Z,1.70
2024-02-16T04:16:19.275Z,1.70
2024-02-16T04:18:46.278Z,1.80
2024-02-16T04:21:13.191Z,1.80
2024-02-16T04:23:40.051Z,1.80
2024-02-16T04:26:07.929Z,1.80
2024-02-16T04:28:35.586Z,1.90
2024-02-16T04:31:02.949Z,1.90
2024-02-16T04:33:30.081Z,1.90
2024-02-16T04:35:57.136Z,1.90
2024-02-16T04:38:24.083Z,1.90
2024-02-16T04:40:50.939Z,1.80
2024-02-16T04:43:18.632Z,1.80
2024-02-16T04:45:45.720Z,1.80
2024-02-16T04:48:12.772Z,1.80
2024-02-16T04:50:39.666Z,1.80
2024-02-16T04:53:06.534Z,1.90
2024-02-16T04:55:33.465Z,1.90
2024-02-16T04:58:00.311Z,1.90
2024-02-16T05:00:27.219Z,1.90
2024-02-16T05:02:54.277Z,1.90
2024-02-16T05:05:21.424Z,1.90
2024-02-16T05:07:50.726Z,1.80
2024-02-16T05:10:17.711Z,1.80
2024-02-16T05:12:44.525Z,1.90
2024-02-16T05:15:11.332Z,1.90
2024-02-16T05:17:38.254Z,1.90
2024-02-16T05:20:16.058Z,1.90
2024-02-16T05:22:44.701Z,1.90
2024-02-16T05:25:11.869Z,1.90
2024-02-16T05:27:38.766Z,2.00
2024-02-16T05:30:10.040Z,2.00
2024-02-16T05:32:40.735Z,2.00
2024-02-16T05:35:18.304Z,2.00
2024-02-16T05:37:48.677Z,2.10
2024-02-16T05:40:27.960Z,2.10
2024-02-16T05:42:55.381Z,2.10
2024-02-16T05:45:25.055Z,2.10
2024-02-16T05:47:52.142Z,2.10
2024-02-16T05:50:21.522Z,2.20
2024-02-16T05:52:48.474Z,2.30
2024-02-16T05:55:15.449Z,2.30
2024-02-16T05:57:42.629Z,2.30
2024-02-16T06:00:11.741Z,2.20
2024-02-16T06:02:38.757Z,2.20
2024-02-16T06:05:06.208Z,2.20
2024-02-16T06:07:33.394Z,2.20
2024-02-16T06:10:00.394Z,2.20
2024-02-16T06:12:27.290Z,2.30
2024-02-16T06:14:55.761Z,2.20
2024-02-16T06:17:22.654Z,2.30
2024-02-16T06:19:50.622Z,2.30
2024-02-16T06:22:18.222Z,2.30
2024-02-16T06:24:45.478Z,2.30
2024-02-16T06:27:12.445Z,2.40
2024-02-16T06:29:39.365Z,2.40
2024-02-16T06:32:06.534Z,2.50
2024-02-16T06:34:33.513Z,2.50
2024-02-16T06:37:00.455Z,2.50
2024-02-16T06:39:27.375Z,2.50
2024-02-16T06:41:54.269Z,2.60
2024-02-16T06:44:23.692Z,2.60
2024-02-16T06:46:51.590Z,2.60
2024-02-16T06:49:18.491Z,2.70
2024-02-16T06:51:46.344Z,2.70
2024-02-16T06:54:13.533Z,2.70
2024-02-16T06:56:40.523Z,2.80
2024-02-16T06:59:07.331Z,2.90
2024-02-16T07:01:34.244Z,2.90
2024-02-16T07:04:03.038Z,2.90
2024-02-16T07:06:30.177Z,3.00
2024-02-16T07:08:57.163Z,3.10
2024-02-16T07:11:24.608Z,3.10
2024-02-16T07:13:51.652Z,3.10
2024-02-16T07:16:19.883Z,3.20
2024-02-16T07:18:47.002Z,3.20
2024-02-16T07:21:14.220Z,3.20
2024-02-16T07:23:41.132Z,3.30
2024-02-16T07:26:08.915Z,3.40
2024-02-16T07:28:36.329Z,3.40
2024-02-16T07:31:04.502Z,3.50
2024-02-16T07:33:31.800Z,3.60
2024-02-16T07:35:58.940Z,3.80
2024-02-16T07:38:25.981Z,3.80
2024-02-16T07:40:52.804Z,3.90
2024-02-16T07:43:20.055Z,4.10
2024-02-16T07:45:47.593Z,4.10
2024-02-16T07:48:15.369Z,4.20
2024-02-16T07:50:42.692Z,4.30
2024-02-16T07:53:12.266Z,4.40
2024-02-16T07:55:39.152Z,4.50
2024-02-16T07:58:05.977Z,4.60
2024-02-16T08:00:33.053Z,4.70
2024-02-16T08:03:00.391Z,4.80
2024-02-16T08:05:28.067Z,4.90
2024-02-16T08:07:55.333Z,5.00
2024-02-16T08:10:22.604Z,5.10
2024-02-16T08:12:50.421Z,5.30
2024-02-16T08:15:23.800Z,5.40
2024-02-16T08:17:53.794Z,5.50
2024-02-16T08:20:21.979Z,5.60
2024-02-16T08:22:49.528Z,5.70
2024-02-16T08:25:16.625Z,5.80
2024-02-16T08:27:44.017Z,5.90
2024-02-16T08:30:12.652Z,6.00
2024-02-16T08:32:45.902Z,6.10
2024-02-16T08:35:15.803Z,6.20
2024-02-16T08:37:42.792Z,6.30
2024-02-16T08:40:40.248Z,6.50
2024-02-16T08:43:08.429Z,6.60
2024-02-16T08:45:35.829Z,6.80
2024-02-16T08:48:04.960Z,6.90
2024-02-16T08:50:32.093Z,7.10
2024-02-16T08:53:01.886Z,7.30
2024-02-16T08:55:32.903Z,7.50
2024-02-16T08:57:59.741Z,7.70
2024-02-16T09:00:28.176Z,7.80
2024-02-16T09:02:55.338Z,8.00
2024-02-16T09:05:22.205Z,8.00
2024-02-16T09:07:49.114Z,8.10
2024-02-16T09:10:16.125Z,8.30
2024-02-16T09:12:43.102Z,8.40
2024-02-16T09:15:10.477Z,8.60
2024-02-16T09:17:37.328Z,8.80
2024-02-16T09:20:05.687Z,9.10
2024-02-16T09:25:03.043Z,9.30
2024-02-16T09:27:30.044Z,9.50
2024-02-16T09:29:56.978Z,9.50
2024-02-16T09:32:24.367Z,9.50
2024-02-16T09:34:52.378Z,9.50
2024-02-16T09:37:19.575Z,9.50
2024-02-16T09:39:46.429Z,9.50
2024-02-16T09:42:15.503Z,9.50
2024-02-16T09:44:43.820Z,9.60
2024-02-16T09:47:13.798Z,9.70
2024-02-16T09:49:41.855Z,9.80
2024-02-16T09:52:13.243Z,9.90
2024-02-16T09:54:40.707Z,10.00
2024-02-16T09:57:07.843Z,10.10
2024-02-16T09:59:34.748Z,10.20
2024-02-16T10:02:08.303Z,10.40
2024-02-16T10:04:37.166Z,10.50
2024-02-16T10:07:10.508Z,10.60
2024-02-16T10:09:41.174Z,10.80
2024-02-16T10:12:08.712Z,10.90
2024-02-16T10:14:35.678Z,11.20
2024-02-16T10:17:03.997Z,11.20
2024-02-16T10:19:41.258Z,11.40
2024-02-16T10:22:13.824Z,11.50
2024-02-16T10:24:41.965Z,11.60
2024-02-16T10:27:19.431Z,11.80
2024-02-16T10:29:50.846Z,12.00
2024-02-16T10:32:19.054Z,12.20
2024-02-16T10:34:47.513Z,12.40
2024-02-16T10:37:15.905Z,12.70
2024-02-16T10:39:43.717Z,13.00
2024-02-16T10:42:12.040Z,13.30
2024-02-16T10:44:39.495Z,13.60
2024-02-16T10:47:06.468Z,13.90
2024-02-16T10:49:33.668Z,14.20
2024-02-16T10:52:01.880Z,14.40
2024-02-16T10:54:33.156Z,14.70
2024-02-16T10:57:00.438Z,15.00
2024-02-16T10:59:30.096Z,15.20
2024-02-16T11:02:01.906Z,15.40
2024-02-16T11:04:39.668Z,15.70
2024-02-16T11:07:17.589Z,16.10
2024-02-16T11:09:45.560Z,16.40
2024-02-16T11:12:17.035Z,16.70
2024-02-16T11:14:56.330Z,16.90
2024-02-16T11:17:24.679Z,17.10
2024-02-16T11:19:55.459Z,17.20
2024-02-16T11:22:23.702Z,17.30
2024-02-16T11:24:56.671Z,17.50
2024-02-16T11:27:26.688Z,17.50
2024-02-16T11:29:53.633Z,17.50
2024-02-16T11:32:21.496Z,17.80
2024-02-16T11:34:48.793Z,18.00
2024-02-16T11:37:16.929Z,18.20
2024-02-16T11:39:46.157Z,18.40
2024-02-16T11:42:14.899Z,18.70
2024-02-16T11:44:55.804Z,18.60
2024-02-16T11:47:29.662Z,18.90
2024-02-16T11:50:04.667Z,19.20
2024-02-16T11:52:32.505Z,19.30
2024-02-16T11:55:04.896Z,19.50
2024-02-16T11:57:32.307Z,19.70
2024-02-16T11:59:59.354Z,19.80
2024-02-16T12:02:26.478Z,20.00
2024-02-16T12:05:04.201Z,20.10
2024-02-16T12:07:32.300Z,20.30
2024-02-16T12:10:00.375Z,20.40
2024-02-16T12:12:28.551Z,20.40
2024-02-16T12:14:56.690Z,20.60
2024-02-16T12:17:24.122Z,20.40
2024-02-16T12:19:52.702Z,20.10
2024-02-16T12:22:21.403Z,20.10
2024-02-16T12:24:51.141Z,20.30
2024-02-16T12:27:18.296Z,20.60
2024-02-16T12:29:45.301Z,20.40
2024-02-16T12:32:12.411Z,20.60
2024-02-16T12:34:39.475Z,21.00
2024-02-16T12:37:12.403Z,21.20
2024-02-16T12:39:39.920Z,21.10
2024-02-16T12:42:07.562Z,21.10
2024-02-16T12:44:34.570Z,21.00
2024-02-16T12:47:01.452Z,21.10
2024-02-16T12:49:28.406Z,20.90
2024-02-16T12:51:55.961Z,20.70
2024-02-16T12:54:23.704Z,20.70
2024-02-16T12:56:51.169Z,20.50
2024-02-16T12:59:18.261Z,21.00
2024-02-16T13:01:45.753Z,21.30
2024-02-16T13:04:13.965Z,20.90
2024-02-16T13:06:42.188Z,20.30
2024-02-16T13:09:09.753Z,20.20
2024-02-16T13:11:36.741Z,20.20
2024-02-16T13:14:03.585Z,19.80
2024-02-16T13:16:30.450Z,20.10
2024-02-16T13:18:57.491Z,19.70
2024-02-16T13:21:24.468Z,19.70
2024-02-16T13:23:51.505Z,19.60
2024-02-16T13:26:18.415Z,19.10
2024-02-16T13:28:45.247Z,19.10
2024-02-16T13:31:12.653Z,18.90
2024-02-16T13:33:39.989Z,18.50
2024-02-16T13:36:07.416Z,18.20
2024-02-16T13:38:34.263Z,18.00
2024-02-16T13:41:01.198Z,18.00
2024-02-16T13:43:29.554Z,17.70
2024-02-16T13:45:59.661Z,17.40
2024-02-16T13:48:26.749Z,17.50
2024-02-16T13:50:57.106Z,17.50
2024-02-16T13:53:24.670Z,17.40
2024-02-16T13:55:51.594Z,17.40
2024-02-16T13:58:18.489Z,17.30
2024-02-16T14:00:45.669Z,17.40
2024-02-16T14:03:15.060Z,17.40
2024-02-16T14:05:43.124Z,17.20
2024-02-16T14:08:12.345Z,17.30
2024-02-16T14:10:39.846Z,17.20
2024-02-16T14:13:06.812Z,17.30
2024-02-16T14:15:33.979Z,17.30
2024-02-16T14:18:05.898Z,17.10
2024-02-16T14:20:36.154Z,17.00
2024-02-16T14:23:03.916Z,17.00
2024-02-16T14:25:30.852Z,17.00
2024-02-16T14:27:59.240Z,17.10
2024-02-16T14:30:26.342Z,17.30
2024-02-16T14:32:55.027Z,17.20
2024-02-16T14:35:25.250Z,17.60
2024-02-16T14:37:52.201Z,17.60
2024-02-16T14:40:19.033Z,17.70
2024-02-16T14:42:46.002Z,17.50
2024-02-16T14:45:20.909Z,17.70
2024-02-16T14:47:49.274Z,17.60
2024-02-16T14:50:16.355Z,17.60
2024-02-16T14:52:45.067Z,17.40
2024-02-16T14:55:14.566Z,17.50
2024-02-16T14:57:42.549Z,17.40
2024-02-16T15:00:12.015Z,17.30
2024-02-16T15:02:40.063Z,17.30
2024-02-16T15:05:08.133Z,16.90
2024-02-16T15:07:36.269Z,16.90
2024-02-16T15:10:04.374Z,16.70
2024-02-16T15:12:31.852Z,16.70
2024-02-16T15:15:00.288Z,16.50
2024-02-16T15:17:27.299Z,16.50
2024-02-16T15:19:54.606Z,16.50
2024-02-16T15:22:22.350Z,16.40
2024-02-16T15:24:49.495Z,16.40
2024-02-16T15:27:16.493Z,16.30
2024-02-16T15:29:44.756Z,16.20
2024-02-16T15:32:11.718Z,16.00
2024-02-16T15:34:38.802Z,16.00
2024-02-16T15:37:05.708Z,15.80
2024-02-16T15:39:32.550Z,15.70
2024-02-16T15:42:00.154Z,15.60
2024-02-16T15:44:27.356Z,15.50
2024-02-16T15:46:55.898Z,15.40
2024-02-16T15:49:23.048Z,15.30
2024-02-16T15:51:50.139Z,15.20
2024-02-16T15:54:17.211Z,15.00
2024-02-16T15:56:44.166Z,15.00
2024-02-16T15:59:11.001Z,15.10
2024-02-16T16:01:38.176Z,14.90
2024-02-16T16:04:05.333Z,14.80
2024-02-16T16:06:32.346Z,14.60
2024-02-16T16:08:59.495Z,14.80
2024-02-16T16:11:26.613Z,14.60
2024-02-16T16:13:53.482Z,14.50
2024-02-16T16:16:20.349Z,14.30
2024-02-16T16:18:47.582Z,14.20
2024-02-16T16:21:14.718Z,14.00
2024-02-16T16:23:41.890Z,14.00
2024-02-16T16:26:08.799Z,13.90
2024-02-16T16:28:35.795Z,13.80
2024-02-16T16:31:02.734Z,13.80
2024-02-16T16:33:29.906Z,13.60
2024-02-16T16:35:57.196Z,13.50
2024-02-16T16:38:24.825Z,13.50
2024-02-16T16:40:51.680Z,13.40
2024-02-16T16:43:20.569Z,13.30
2024-02-16T16:45:47.750Z,13.20
2024-02-16T16:48:14.715Z,13.20
2024-02-16T16:50:45.101Z,13.10
2024-02-16T16:53:11.995Z,13.10
2024-02-16T16:55:38.850Z,13.00
2024-02-16T16:58:05.850Z,13.00
2024-02-16T17:00:32.670Z,12.90
2024-02-16T17:03:00.995Z,12.90
2024-02-16T17:05:28.060Z,12.80
2024-02-16T17:07:55.087Z,12.80
2024-02-16T17:10:22.104Z,12.70
2024-02-16T17:12:49.360Z,12.70
2024-02-16T17:15:19.891Z,12.70
2024-02-16T17:17:53.805Z,12.60
2024-02-16T17:20:24.947Z,12.50
2024-02-16T17:22:52.355Z,12.50
2024-02-16T17:25:20.778Z,12.50
2024-02-16T17:27:50.919Z,12.40
2024-02-16T17:30:20.925Z,12.30
2024-02-16T17:32:51.417Z,12.20
2024-02-16T17:35:19.802Z,12.10
2024-02-16T17:37:47.193Z,12.00
2024-02-16T17:40:14.603Z,12.00
2024-02-16T17:42:42.258Z,12.00
2024-02-16T17:45:09.973Z,11.90
2024-02-16T17:47:38.511Z,11.90
2024-02-16T17:50:06.675Z,11.80
2024-02-16T17:52:33.884Z,11.70
2024-02-16T17:55:04.529Z,11.70
2024-02-16T17:57:33.940Z,11.60
2024-02-16T18:00:00.919Z,11.50
2024-02-16T18:02:38.436Z,11.50
2024-02-16T18:05:08.893Z,11.40
2024-02-16T18:07:35.830Z,11.20
2024-02-16T18:10:05.755Z,11.20
2024-02-16T18:12:33.893Z,11.10
2024-02-16T18:15:00.949Z,11.00
2024-02-16T18:17:28.049Z,11.00
2024-02-16T18:19:55.805Z,11.00
2024-02-16T18:22:23.025Z,10.90
2024-02-16T18:24:49.981Z,10.80
2024-02-16T18:27:18.335Z,10.80
2024-02-16T18:29:45.391Z,10.80
2024-02-16T18:32:13.239Z,10.80
2024-02-16T18:34:40.578Z,10.60
2024-02-16T18:37:07.667Z,10.60
2024-02-16T18:39:34.746Z,10.60
2024-02-16T18:42:01.899Z,10.60
2024-02-16T18:44:29.105Z,10.60
2024-02-16T18:46:56.656Z,10.60
2024-02-16T18:49:25.986Z,10.50
2024-02-16T18:51:52.953Z,10.50
2024-02-16T18:54:22.685Z,10.40
2024-02-16T18:56:49.545Z,10.40
2024-02-16T18:59:17.002Z,10.40
2024-02-16T19:01:44.365Z,10.30
2024-02-16T19:04:13.731Z,10.30
2024-02-16T19:06:40.698Z,10.20
2024-02-16T19:09:10.336Z,10.10
2024-02-16T19:11:37.828Z,10.10
2024-02-16T19:14:04.678Z,10.00
2024-02-16T19:16:31.484Z,9.90
2024-02-16T19:18:58.512Z,9.90
2024-02-16T19:21:25.662Z,9.80
2024-02-16T19:23:52.508Z,9.70
2024-02-16T19:26:20.135Z,9.60
2024-02-16T19:28:49.584Z,9.60
2024-02-16T19:31:17.278Z,9.60
2024-02-16T19:33:44.311Z,9.50
2024-02-16T19:36:11.729Z,9.40
2024-02-16T19:38:38.688Z,9.40
2024-02-16T19:41:05.868Z,9.30
2024-02-16T19:43:32.817Z,9.20
2024-02-16T19:46:00.151Z,9.10
2024-02-16T19:48:27.230Z,9.10
2024-02-16T19:50:54.333Z,9.00
2024-02-16T19:53:24.015Z,9.00
2024-02-16T19:55:50.901Z,9.00
2024-02-16T19:58:18.121Z,9.00
2024-02-16T20:00:47.256Z,9.00
2024-02-16T20:03:14.410Z,9.00
2024-02-16T20:05:41.873Z,9.00
2024-02-16T20:08:09.202Z,9.10
2024-02-16T20:10:36.096Z,9.10
2024-02-16T20:13:03.563Z,9.10
2024-02-16T20:15:31.436Z,9.00
2024-02-16T20:18:02.673Z,9.00
2024-02-16T20:20:30.606Z,9.00
2024-02-16T20:22:59.341Z,9.00
2024-02-16T20:25:26.330Z,9.00
2024-02-16T20:27:57.372Z,9.00
2024-02-16T20:30:26.551Z,9.00
2024-02-16T20:32:57.579Z,8.90
2024-02-16T20:35:25.804Z,8.70
2024-02-16T20:37:52.915Z,8.70
2024-02-16T20:40:19.906Z,8.70
2024-02-16T20:42:49.584Z,8.70
2024-02-16T20:45:22.864Z,8.70
2024-02-16T20:47:49.864Z,8.70
2024-02-16T20:50:18.331Z,8.70
2024-02-16T20:52:45.685Z,8.60
2024-02-16T20:55:12.784Z,8.60
2024-02-16T20:57:40.172Z,8.50
2024-02-16T21:00:12.558Z,8.50
2024-02-16T21:02:39.875Z,8.50
2024-02-16T21:05:09.269Z,8.50
2024-02-16T21:07:36.619Z,8.50
2024-02-16T21:10:05.481Z,8.50
2024-02-16T21:12:32.513Z,8.40
2024-02-16T21:14:59.511Z,8.50
2024-02-16T21:17:29.474Z,8.50
2024-02-16T21:19:56.569Z,8.50
2024-02-16T21:22:23.556Z,8.40
2024-02-16T21:24:50.531Z,8.30
2024-02-16T21:27:17.516Z,8.30
2024-02-16T21:29:46.361Z,8.30
2024-02-16T21:32:13.684Z,8.30
2024-02-16T21:34:40.874Z,8.30
2024-02-16T21:37:07.989Z,8.40
2024-02-16T21:39:35.364Z,8.30
2024-02-16T21:42:03.739Z,8.40
2024-02-16T21:44:30.586Z,8.40
2024-02-16T21:46:59.751Z,8.40
2024-02-16T21:49:28.498Z,8.40
2024-02-16T21:51:55.532Z,8.30
2024-02-16T21:54:25.146Z,8.40
2024-02-16T21:56:59.290Z,8.40
2024-02-16T21:59:26.156Z,8.40
2024-02-16T22:01:53.004Z,8.40
2024-02-16T22:04:19.820Z,8.40
2024-02-16T22:06:48.999Z,8.40
2024-02-16T22:09:16.039Z,8.40
2024-02-16T22:11:42.931Z,8.40
2024-02-16T22:14:09.742Z,8.40
2024-02-16T22:16:37.933Z,8.40
2024-02-16T22:19:04.808Z,8.40
2024-02-16T22:21:37.085Z,8.50
2024-02-16T22:24:10.882Z,8.40
2024-02-16T22:26:40.813Z,8.50
2024-02-16T22:29:07.969Z,8.50
2024-02-16T22:31:41.051Z,8.50
2024-02-16T22:34:10.623Z,8.50
2024-02-16T22:36:37.710Z,8.40
2024-02-16T22:39:05.356Z,8.40
2024-02-16T22:41:32.527Z,8.40
2024-02-16T22:43:59.795Z,8.40
2024-02-16T22:46:26.671Z,8.40
2024-02-16T22:48:53.661Z,8.50
2024-02-16T22:51:20.691Z,8.40
2024-02-16T22:53:47.630Z,8.50
2024-02-16T22:56:14.542Z,8.50
2024-02-16T22:58:41.362Z,8.50
2024-02-16T23:01:08.389Z,8.60
2024-02-16T23:03:35.550Z,8.60
2024-02-16T23:06:04.388Z,8.60
2024-02-16T23:08:33.436Z,8.60
2024-02-16T23:11:00.369Z,8.60
2024-02-16T23:13:27.278Z,8.50
2024-02-16T23:15:54.338Z,8.50
2024-02-16T23:18:21.693Z,8.50
2024-02-16T23:20:48.968Z,8.50
2024-02-16T23:23:16.334Z,8.50
2024-02-16T23:25:44.561Z,8.50
2024-02-16T23:28:14.476Z,8.60
2024-02-16T23:30:42.277Z,8.60
2024-02-16T23:33:11.762Z,8.60
2024-02-16T23:35:39.344Z,8.50
2024-02-16T23:38:06.537Z,8.50
2024-02-16T23:40:33.719Z,8.50
2024-02-16T23:43:00.683Z,8.50
2024-02-16T23:45:35.334Z,8.60
2024-02-16T23:48:02.633Z,8.50
2024-02-16T23:50:31.654Z,8.60
2024-02-16T23:52:59.198Z,8.60
2024-02-16T23:55:26.866Z,8.60
2024-02-16T23:57:54.422Z,8.70
